Terminal Aerodrome Forecast
Issued by NWS Billings, MT

Home | Current Version | Previous Version | Text Only | Print | Product List | Glossary Off
Versions: 1 2 3 4 5 6 7 8 9 10 11 12 13 14 15

000
FTUS45 KBYZ 171131
TAFMLS
TAF
KMLS 171131Z 1712/1812 06006KT P6SM OVC050
     FM172000 21010KT P6SM SCT080 BKN120
     FM180300 09012KT P6SM BKN150=

USA.gov is the U.S. government's official web portal to all federal, state and local government web resources and services.